createdAt,value
2019-05-29T00:02:19.280Z,3.70
2019-05-29T00:04:48.248Z,3.50
2019-05-29T00:07:16.385Z,4.00
2019-05-29T00:09:44.514Z,3.50
2019-05-29T00:12:19.191Z,3.80
2019-05-29T00:14:42.579Z,3.60
2019-05-29T00:17:11.065Z,3.60
2019-05-29T00:19:39.186Z,4.13
2019-05-29T00:22:08.232Z,3.53
2019-05-29T00:24:36.410Z,3.50
2019-05-29T00:27:05.396Z,3.97
2019-05-29T00:29:33.644Z,3.77
2019-05-29T00:32:01.745Z,4.40
2019-05-29T00:34:29.887Z,4.03
2019-05-29T00:36:58.005Z,4.33
2019-05-29T00:39:26.152Z,4.57
2019-05-29T00:41:54.305Z,4.10
2019-05-29T00:44:33.877Z,4.37
2019-05-29T00:46:52.296Z,4.30
2019-05-29T00:49:20.496Z,4.60
2019-05-29T00:51:48.609Z,4.70
2019-05-29T00:54:30.056Z,3.87
2019-05-29T00:56:58.228Z,3.77
2019-05-29T00:59:26.408Z,4.47
2019-05-29T01:01:54.641Z,4.23
2019-05-29T01:04:22.869Z,4.07
2019-05-29T01:06:50.996Z,4.00
2019-05-29T01:09:19.259Z,4.00
2019-05-29T01:11:48.242Z,4.40
2019-05-29T01:14:17.175Z,4.00
2019-05-29T01:16:45.332Z,4.30
2019-05-29T01:19:25.864Z,3.90
2019-05-29T01:21:54.609Z,3.97
2019-05-29T01:24:22.786Z,5.70
2019-05-29T01:26:50.887Z,4.40
2019-05-29T01:29:19.493Z,4.77
2019-05-29T01:31:47.812Z,4.20
2019-05-29T01:34:15.962Z,3.93
2019-05-29T01:36:44.069Z,3.77
2019-05-29T01:39:12.935Z,4.17
2019-05-29T01:41:41.033Z,4.47
2019-05-29T01:44:09.169Z,4.33
2019-05-29T01:46:37.297Z,3.90
2019-05-29T01:49:05.508Z,4.37
2019-05-29T01:51:33.620Z,4.42
2019-05-29T01:54:01.760Z,4.93
2019-05-29T01:56:30.670Z,4.33
2019-05-29T01:58:58.859Z,5.30
2019-05-29T02:01:28.157Z,6.77
2019-05-29T02:03:56.441Z,5.37
2019-05-29T02:06:24.537Z,4.95
2019-05-29T02:08:52.652Z,5.37
2019-05-29T02:11:21.262Z,4.90
2019-05-29T02:13:49.474Z,5.70
2019-05-29T02:16:18.512Z,5.67
2019-05-29T02:18:48.453Z,5.23
2019-05-29T02:21:16.549Z,5.30
2019-05-29T02:23:44.651Z,7.50
2019-05-29T02:26:12.782Z,6.00
2019-05-29T02:28:40.939Z,5.15
2019-05-29T02:31:09.055Z,5.63
2019-05-29T02:33:37.142Z,4.87
2019-05-29T02:36:05.315Z,5.60
2019-05-29T02:38:33.440Z,6.00
2019-05-29T02:41:01.689Z,5.80
2019-05-29T02:43:30.125Z,5.67
2019-05-29T02:45:58.491Z,5.83
2019-05-29T02:48:27.478Z,5.75
2019-05-29T02:50:56.548Z,5.23
2019-05-29T02:53:26.158Z,5.70
2019-05-29T02:55:54.613Z,5.13
2019-05-29T02:58:24.068Z,5.20
2019-05-29T03:00:54.570Z,6.23
2019-05-29T03:03:23.727Z,5.23
2019-05-29T03:05:55.280Z,5.70
2019-05-29T03:08:24.740Z,6.60
2019-05-29T03:10:53.391Z,5.65
2019-05-29T03:13:22.965Z,5.57
2019-05-29T03:16:08.555Z,5.30
2019-05-29T03:18:21.210Z,5.25
2019-05-29T03:20:49.428Z,5.27
2019-05-29T03:23:17.612Z,5.80
2019-05-29T03:25:46.031Z,5.80
2019-05-29T03:28:14.136Z,5.60
2019-05-29T03:30:46.039Z,6.40
2019-05-29T03:33:12.162Z,5.97
2019-05-29T03:35:47.475Z,5.90
2019-05-29T03:38:10.118Z,6.17
2019-05-29T03:40:38.689Z,6.10
2019-05-29T03:43:06.979Z,6.30
2019-05-29T03:45:36.245Z,6.00
2019-05-29T03:48:05.085Z,6.87
2019-05-29T03:50:34.775Z,6.70
2019-05-29T03:53:03.064Z,5.77
2019-05-29T03:55:31.511Z,5.90
2019-05-29T03:57:59.997Z,6.10
2019-05-29T04:00:36.130Z,6.37
2019-05-29T04:02:59.757Z,6.37
2019-05-29T04:05:29.117Z,6.53
2019-05-29T04:07:57.436Z,5.90
2019-05-29T04:10:37.004Z,5.80
2019-05-29T04:13:04.401Z,5.87
2019-05-29T04:15:36.558Z,6.37
2019-05-29T04:18:05.410Z,5.67
2019-05-29T04:20:35.875Z,6.03
2019-05-29T04:23:06.591Z,7.43
2019-05-29T04:25:39.593Z,6.60
2019-05-29T04:28:06.558Z,6.50
2019-05-29T04:30:36.313Z,6.20
2019-05-29T04:33:05.029Z,7.03
2019-05-29T04:35:34.475Z,6.50
2019-05-29T04:38:02.879Z,6.50
2019-05-29T04:40:32.538Z,6.80
2019-05-29T04:43:01.086Z,6.50
2019-05-29T04:45:30.711Z,6.47
2019-05-29T04:47:59.155Z,6.37
2019-05-29T04:50:29.009Z,6.70
2019-05-29T04:52:57.319Z,8.33
2019-05-29T04:55:28.637Z,8.28
2019-05-29T04:57:56.820Z,6.83
2019-05-29T05:00:26.109Z,7.50
2019-05-29T05:02:54.336Z,7.03
2019-05-29T05:05:22.629Z,6.50
2019-05-29T05:07:50.782Z,6.43
2019-05-29T05:10:20.510Z,6.87
2019-05-29T05:12:48.796Z,6.00
2019-05-29T05:15:17.012Z,8.93
2019-05-29T05:17:45.120Z,8.63
2019-05-29T05:20:13.233Z,6.63
2019-05-29T05:22:41.355Z,6.65
2019-05-29T05:25:09.593Z,7.53
2019-05-29T05:27:38.429Z,7.77
2019-05-29T05:30:08.925Z,7.97
2019-05-29T05:32:36.892Z,7.20
2019-05-29T05:35:06.979Z,9.60
2019-05-29T05:37:35.101Z,7.30
2019-05-29T05:40:04.326Z,6.67
2019-05-29T05:42:32.913Z,6.60
2019-05-29T05:45:02.821Z,6.05
2019-05-29T05:47:45.076Z,6.20
2019-05-29T05:50:00.963Z,7.35
2019-05-29T05:52:29.065Z,6.63
2019-05-29T05:54:57.238Z,18.00
2019-05-29T05:57:25.425Z,8.13
2019-05-29T05:59:53.607Z,7.57
2019-05-29T06:02:21.779Z,6.08
2019-05-29T06:04:49.933Z,6.00
2019-05-29T06:07:18.068Z,5.83
2019-05-29T06:09:47.386Z,5.83
2019-05-29T06:12:17.054Z,5.37
2019-05-29T06:14:45.236Z,4.60
2019-05-29T06:17:13.475Z,5.00
2019-05-29T06:19:43.024Z,5.30
2019-05-29T06:22:11.436Z,4.60
2019-05-29T06:24:40.897Z,4.67
2019-05-29T06:27:09.169Z,4.93
2019-05-29T06:29:37.287Z,5.67
2019-05-29T06:32:05.473Z,4.70
2019-05-29T06:34:33.658Z,5.47
2019-05-29T06:37:01.832Z,5.60
2019-05-29T06:39:29.993Z,5.00
2019-05-29T06:41:58.161Z,4.65
2019-05-29T06:44:26.412Z,18.83
2019-05-29T06:46:55.141Z,12.37
2019-05-29T06:49:23.328Z,4.63
2019-05-29T06:51:51.446Z,4.30
2019-05-29T06:54:19.552Z,3.40
2019-05-29T06:56:48.028Z,3.73
2019-05-29T06:59:17.267Z,4.40
2019-05-29T07:01:45.438Z,4.80
2019-05-29T07:04:13.689Z,4.20
2019-05-29T07:06:42.750Z,3.40
2019-05-29T07:09:11.660Z,3.47
2019-05-29T07:11:41.322Z,3.27
2019-05-29T07:14:09.697Z,4.60
2019-05-29T07:16:48.216Z,3.27
2019-05-29T07:19:24.799Z,3.10
2019-05-29T07:21:38.697Z,3.93
2019-05-29T07:24:07.564Z,3.00
2019-05-29T07:26:39.009Z,3.87
2019-05-29T07:29:08.855Z,3.23
2019-05-29T07:31:37.118Z,2.90
2019-05-29T07:34:05.299Z,3.20
2019-05-29T07:36:33.463Z,2.87
2019-05-29T07:39:03.559Z,2.30
2019-05-29T07:41:31.536Z,3.00
2019-05-29T07:43:59.651Z,3.47
2019-05-29T07:46:27.800Z,2.63
2019-05-29T07:48:56.644Z,3.30
2019-05-29T07:51:24.792Z,5.00
2019-05-29T07:53:53.437Z,7.22
2019-05-29T07:56:23.046Z,3.58
2019-05-29T07:59:01.816Z,3.20
2019-05-29T08:01:21.554Z,2.60
2019-05-29T08:03:49.863Z,1.83
2019-05-29T08:06:18.097Z,1.63
2019-05-29T08:08:47.369Z,2.00
2019-05-29T08:11:15.706Z,1.70
2019-05-29T08:13:43.867Z,3.23
2019-05-29T08:16:12.003Z,2.97
2019-05-29T08:18:41.661Z,3.10
2019-05-29T08:21:10.052Z,2.90
2019-05-29T08:23:38.161Z,3.65
2019-05-29T08:26:06.347Z,3.13
2019-05-29T08:28:34.462Z,3.10
2019-05-29T08:31:02.789Z,3.17
2019-05-29T08:33:31.497Z,2.80
2019-05-29T08:36:00.430Z,2.37
2019-05-29T08:38:28.764Z,2.03
2019-05-29T08:40:56.933Z,2.10
2019-05-29T08:43:25.057Z,2.70
2019-05-29T08:45:53.488Z,1.93
2019-05-29T08:48:21.580Z,1.87
2019-05-29T08:50:50.069Z,2.22
2019-05-29T08:53:18.254Z,1.70
2019-05-29T08:55:46.445Z,2.70
2019-05-29T08:58:14.551Z,1.70
2019-05-29T09:00:48.116Z,1.60
2019-05-29T09:03:12.681Z,2.40
2019-05-29T09:05:40.877Z,1.63
2019-05-29T09:08:09.197Z,2.13
2019-05-29T09:10:37.391Z,1.60
2019-05-29T09:13:06.816Z,2.00
2019-05-29T09:15:34.936Z,2.77
2019-05-29T09:18:03.183Z,2.20
2019-05-29T09:20:50.257Z,2.12
2019-05-29T09:23:01.181Z,2.27
2019-05-29T09:25:29.375Z,2.47
2019-05-29T09:27:59.219Z,2.47
2019-05-29T09:30:27.657Z,2.20
2019-05-29T09:32:55.812Z,2.97
2019-05-29T09:35:25.070Z,2.50
2019-05-29T09:37:53.251Z,2.10
2019-05-29T09:40:21.461Z,1.87
2019-05-29T09:42:49.581Z,2.15
2019-05-29T09:45:18.027Z,1.90
2019-05-29T09:47:47.771Z,2.03
2019-05-29T09:50:17.442Z,2.30
2019-05-29T09:52:46.641Z,1.60
2019-05-29T09:55:14.812Z,2.10
2019-05-29T09:57:42.922Z,1.80
2019-05-29T10:00:11.302Z,2.27
2019-05-29T10:02:39.478Z,2.30
2019-05-29T10:07:42.195Z,1.90
2019-05-29T10:10:11.969Z,1.87
2019-05-29T10:12:40.221Z,1.80
2019-05-29T10:15:10.257Z,1.60
2019-05-29T10:17:38.497Z,2.50
2019-05-29T10:20:08.475Z,2.30
2019-05-29T10:22:36.644Z,2.20
2019-05-29T10:25:07.869Z,1.70
2019-05-29T10:27:36.099Z,2.08
2019-05-29T10:30:05.106Z,1.77
2019-05-29T10:32:33.275Z,2.20
2019-05-29T10:35:01.396Z,1.70
2019-05-29T10:37:29.561Z,2.20
2019-05-29T10:39:57.683Z,1.87
2019-05-29T10:42:28.996Z,1.50
2019-05-29T10:44:57.200Z,1.50
2019-05-29T10:47:28.929Z,1.10
2019-05-29T10:49:57.104Z,1.10
2019-05-29T10:52:25.342Z,1.20
2019-05-29T10:54:54.423Z,1.12
2019-05-29T10:57:22.658Z,1.40
2019-05-29T10:59:50.896Z,1.63
2019-05-29T11:02:19.182Z,1.77
2019-05-29T11:04:51.601Z,1.97
2019-05-29T11:07:17.117Z,1.40
2019-05-29T11:09:46.833Z,1.73
2019-05-29T11:12:15.192Z,1.60
2019-05-29T11:14:43.377Z,1.40
2019-05-29T11:17:11.562Z,2.35
2019-05-29T11:19:39.741Z,1.33
2019-05-29T11:22:25.178Z,1.75
2019-05-29T11:24:37.968Z,1.20
2019-05-29T11:27:06.182Z,1.50
2019-05-29T11:29:34.285Z,1.40
2019-05-29T11:32:02.541Z,1.60
2019-05-29T11:34:30.725Z,1.43
2019-05-29T11:36:58.883Z,1.35
2019-05-29T11:39:29.515Z,1.50
2019-05-29T11:41:58.672Z,1.50
2019-05-29T11:44:30.707Z,1.62
2019-05-29T11:46:58.941Z,2.02
2019-05-29T11:49:29.334Z,1.40
2019-05-29T11:52:18.782Z,2.00
2019-05-29T11:54:30.068Z,1.10
2019-05-29T11:56:59.188Z,2.55
2019-05-29T11:59:29.807Z,1.82
2019-05-29T12:01:59.322Z,1.70
2019-05-29T12:04:29.128Z,1.82
2019-05-29T12:06:57.636Z,1.80
2019-05-29T12:09:32.943Z,1.95
2019-05-29T12:11:56.152Z,1.98
2019-05-29T12:14:24.465Z,1.50
2019-05-29T12:16:53.915Z,1.50
2019-05-29T12:19:22.756Z,1.27
2019-05-29T12:21:52.283Z,1.70
2019-05-29T12:24:20.512Z,1.60
2019-05-29T12:26:48.652Z,1.60
2019-05-29T12:29:16.924Z,1.60
2019-05-29T12:31:46.672Z,2.22
2019-05-29T12:34:19.166Z,1.53
2019-05-29T12:36:44.711Z,1.80
2019-05-29T12:39:12.854Z,1.25
2019-05-29T12:41:40.991Z,1.60
2019-05-29T12:44:09.220Z,1.70
2019-05-29T12:46:37.405Z,1.70
2019-05-29T12:49:07.488Z,1.40
2019-05-29T12:51:35.700Z,1.10
2019-05-29T12:54:05.143Z,1.42
2019-05-29T12:56:33.425Z,1.25
2019-05-29T12:59:02.682Z,1.27
2019-05-29T13:01:31.761Z,1.13
2019-05-29T13:04:00.455Z,1.02
2019-05-29T13:06:28.776Z,1.17
2019-05-29T13:08:56.876Z,1.93
2019-05-29T13:11:24.982Z,1.50
2019-05-29T13:13:54.197Z,1.20
2019-05-29T13:16:24.230Z,1.72
2019-05-29T13:18:52.345Z,1.10
2019-05-29T13:21:20.517Z,1.40
2019-05-29T13:23:48.675Z,1.67
2019-05-29T13:26:16.809Z,1.33
2019-05-29T13:28:44.935Z,1.65
2019-05-29T13:31:14.746Z,2.30
2019-05-29T13:33:48.099Z,2.42
2019-05-29T13:36:17.995Z,2.10
2019-05-29T13:38:45.944Z,1.95
2019-05-29T13:41:14.117Z,2.37
2019-05-29T13:43:42.232Z,2.20
2019-05-29T13:46:10.382Z,2.60
2019-05-29T13:48:47.288Z,2.10
2019-05-29T13:51:16.186Z,2.83
2019-05-29T13:53:59.270Z,2.22
2019-05-29T13:56:14.245Z,1.90
2019-05-29T13:58:42.380Z,1.72
2019-05-29T14:01:10.667Z,1.57
2019-05-29T14:03:40.125Z,1.20
2019-05-29T14:06:09.597Z,1.15
2019-05-29T14:08:38.090Z,1.00
2019-05-29T14:11:07.230Z,1.55
2019-05-29T14:13:35.819Z,1.00
2019-05-29T14:16:04.229Z,1.52
2019-05-29T14:18:33.980Z,1.47
2019-05-29T14:21:03.135Z,1.17
2019-05-29T14:23:34.033Z,1.30
2019-05-29T14:26:06.453Z,2.17
2019-05-29T14:28:36.698Z,2.72
2019-05-29T14:31:05.978Z,2.57
2019-05-29T14:33:34.306Z,3.35
2019-05-29T14:36:03.432Z,2.85
2019-05-29T14:38:32.055Z,2.90
2019-05-29T14:41:01.601Z,2.27
2019-05-29T14:43:29.955Z,2.40
2019-05-29T14:45:58.092Z,2.50
2019-05-29T14:48:26.256Z,2.50
2019-05-29T14:50:54.499Z,2.67
2019-05-29T14:53:22.750Z,3.77
2019-05-29T14:55:50.882Z,1.98
2019-05-29T14:58:20.358Z,2.20
2019-05-29T15:00:50.365Z,2.20
2019-05-29T15:03:21.630Z,2.90
2019-05-29T15:05:49.731Z,2.70
2019-05-29T15:08:20.628Z,2.30
2019-05-29T15:10:48.924Z,2.47
2019-05-29T15:13:17.085Z,2.17
2019-05-29T15:15:45.238Z,2.40
2019-05-29T15:18:18.169Z,2.00
2019-05-29T15:20:43.473Z,2.00
2019-05-29T15:23:11.753Z,1.47
2019-05-29T15:25:43.100Z,1.22
2019-05-29T15:28:13.586Z,1.32
2019-05-29T15:30:41.408Z,1.80
2019-05-29T15:33:14.775Z,1.80
2019-05-29T15:35:43.287Z,7.22
2019-05-29T15:38:12.738Z,1.87
2019-05-29T15:40:42.586Z,1.50
2019-05-29T15:43:10.927Z,2.60
2019-05-29T15:45:39.048Z,2.40
2019-05-29T15:48:18.121Z,3.57
2019-05-29T15:50:46.407Z,7.00
2019-05-29T15:53:15.182Z,1.90
2019-05-29T15:55:43.440Z,2.72
2019-05-29T15:58:11.565Z,2.60
2019-05-29T16:00:39.683Z,2.65
2019-05-29T16:03:07.808Z,1.80
2019-05-29T16:05:36.002Z,2.12
2019-05-29T16:08:04.561Z,3.15
2019-05-29T16:10:32.688Z,1.90
2019-05-29T16:13:00.931Z,2.10
2019-05-29T16:15:29.571Z,2.83
2019-05-29T16:17:57.795Z,2.95
2019-05-29T16:20:30.334Z,3.05
2019-05-29T16:23:00.769Z,1.92
2019-05-29T16:25:40.281Z,3.17
2019-05-29T16:30:55.489Z,2.87
2019-05-29T16:33:20.622Z,2.83
2019-05-29T16:35:51.788Z,2.70
2019-05-29T16:38:19.945Z,4.03
2019-05-29T16:40:48.124Z,2.72
2019-05-29T16:43:20.076Z,2.85
2019-05-29T16:45:48.812Z,2.30
2019-05-29T16:48:20.716Z,2.15
2019-05-29T16:50:48.828Z,2.33
2019-05-29T16:53:16.958Z,3.55
2019-05-29T16:55:53.786Z,2.60
2019-05-29T16:58:15.598Z,2.50
2019-05-29T17:00:43.826Z,2.02
2019-05-29T17:03:13.427Z,1.42
2019-05-29T17:05:41.677Z,7.95
2019-05-29T17:08:10.144Z,3.30
2019-05-29T17:10:38.406Z,5.65
2019-05-29T17:13:07.252Z,3.10
2019-05-29T17:15:35.961Z,3.37
2019-05-29T17:18:04.450Z,3.22
2019-05-29T17:20:34.260Z,4.78
2019-05-29T17:23:02.390Z,5.12
2019-05-29T17:25:30.845Z,3.23
2019-05-29T17:28:00.742Z,2.55
2019-05-29T17:30:30.493Z,2.83
2019-05-29T17:32:58.855Z,2.27
2019-05-29T17:35:27.085Z,1.65
2019-05-29T17:37:55.256Z,2.90
2019-05-29T17:40:23.632Z,2.05
2019-05-29T17:42:51.770Z,1.77
2019-05-29T17:45:23.900Z,1.90
2019-05-29T17:47:50.032Z,2.05
2019-05-29T17:50:21.684Z,1.93
2019-05-29T17:52:49.919Z,7.33
2019-05-29T17:55:21.529Z,1.80
2019-05-29T17:57:48.416Z,1.50
2019-05-29T18:00:20.751Z,1.30
2019-05-29T18:02:52.394Z,4.53
2019-05-29T18:05:20.517Z,2.77
2019-05-29T18:07:48.741Z,2.10
2019-05-29T18:10:19.375Z,2.47
2019-05-29T18:12:48.043Z,2.63
2019-05-29T18:15:19.293Z,3.35
2019-05-29T18:17:48.076Z,2.40
2019-05-29T18:20:17.913Z,2.60
2019-05-29T18:22:46.321Z,1.60
2019-05-29T18:25:17.904Z,1.77
2019-05-29T18:27:48.394Z,1.30
2019-05-29T18:30:18.103Z,10.53
2019-05-29T18:32:46.537Z,1.70
2019-05-29T18:35:14.731Z,1.57
2019-05-29T18:37:42.949Z,1.83
2019-05-29T18:40:12.586Z,2.70
2019-05-29T18:42:41.135Z,2.47
2019-05-29T18:45:20.262Z,5.00
2019-05-29T18:47:39.455Z,5.90
2019-05-29T18:50:08.395Z,7.17
2019-05-29T18:52:38.011Z,3.50
2019-05-29T18:55:07.460Z,3.17
2019-05-29T18:57:35.613Z,2.13
2019-05-29T19:00:05.257Z,1.90
2019-05-29T19:02:38.288Z,2.37
2019-05-29T19:05:06.802Z,2.03
2019-05-29T19:07:35.026Z,2.00
2019-05-29T19:10:06.729Z,3.90
2019-05-29T19:12:35.569Z,2.10
2019-05-29T19:15:06.837Z,9.00
2019-05-29T19:17:35.089Z,2.93
2019-05-29T19:20:22.625Z,2.20
2019-05-29T19:22:52.497Z,1.70
2019-05-29T19:25:22.531Z,1.50
2019-05-29T19:27:51.373Z,1.60
2019-05-29T19:30:19.802Z,3.10
2019-05-29T19:32:47.939Z,10.50
2019-05-29T19:35:16.526Z,3.40
2019-05-29T19:37:44.695Z,2.60
2019-05-29T19:40:13.213Z,2.13
2019-05-29T19:42:41.395Z,3.77
2019-05-29T19:45:10.205Z,4.10
2019-05-29T19:47:41.417Z,3.53
2019-05-29T19:50:11.408Z,4.40
2019-05-29T19:52:39.742Z,8.97
2019-05-29T19:55:08.949Z,5.27
2019-05-29T19:57:52.433Z,7.27
2019-05-29T20:00:08.575Z,3.77
2019-05-29T20:02:36.817Z,3.17
2019-05-29T20:07:38.982Z,3.67
2019-05-29T20:10:12.607Z,3.25
2019-05-29T20:12:40.928Z,14.60
2019-05-29T20:15:09.146Z,10.87
2019-05-29T20:17:38.418Z,4.43
2019-05-29T20:20:07.306Z,11.68
2019-05-29T20:22:36.781Z,4.97
2019-05-29T20:25:06.739Z,4.67
2019-05-29T20:27:36.181Z,3.35
2019-05-29T20:30:05.236Z,4.87
2019-05-29T20:32:34.648Z,4.27
2019-05-29T20:35:03.696Z,3.20
2019-05-29T20:37:32.004Z,3.50
2019-05-29T20:40:00.259Z,3.40
2019-05-29T20:42:30.086Z,3.37
2019-05-29T20:44:58.355Z,3.90
2019-05-29T20:47:26.525Z,3.57
2019-05-29T20:49:54.781Z,4.00
2019-05-29T20:52:22.985Z,3.33
2019-05-29T20:54:51.376Z,3.07
2019-05-29T20:57:19.541Z,4.37
2019-05-29T20:59:47.747Z,3.72
2019-05-29T21:02:15.947Z,4.27
2019-05-29T21:04:44.238Z,3.60
2019-05-29T21:07:12.351Z,6.73
2019-05-29T21:09:41.145Z,4.70
2019-05-29T21:12:10.850Z,4.00
2019-05-29T21:14:39.692Z,12.80
2019-05-29T21:17:08.082Z,7.15
2019-05-29T21:19:36.512Z,3.87
2019-05-29T21:22:04.818Z,3.80
2019-05-29T21:24:34.443Z,3.77
2019-05-29T21:27:08.500Z,3.73
2019-05-29T21:29:37.124Z,3.60
2019-05-29T21:32:05.538Z,3.93
2019-05-29T21:34:33.745Z,3.87
2019-05-29T21:37:01.916Z,3.80
2019-05-29T21:39:30.043Z,3.25
2019-05-29T21:41:58.286Z,3.50
2019-05-29T21:44:26.494Z,3.80
2019-05-29T21:46:54.745Z,3.53
2019-05-29T21:49:22.886Z,4.23
2019-05-29T21:51:51.160Z,5.00
2019-05-29T21:54:19.287Z,10.17
2019-05-29T21:56:47.907Z,6.43
2019-05-29T21:59:16.186Z,3.40
2019-05-29T22:01:44.424Z,3.33
2019-05-29T22:04:12.697Z,3.20
2019-05-29T22:06:42.535Z,3.33
2019-05-29T22:09:12.380Z,3.57
2019-05-29T22:11:44.416Z,3.50
2019-05-29T22:14:12.664Z,3.30
2019-05-29T22:16:40.830Z,3.33
2019-05-29T22:19:08.925Z,2.90
2019-05-29T22:21:37.064Z,3.20
2019-05-29T22:24:05.401Z,5.50
2019-05-29T22:26:33.640Z,4.83
2019-05-29T22:29:17.295Z,3.23
2019-05-29T22:31:34.173Z,3.83
2019-05-29T22:34:02.388Z,3.27
2019-05-29T22:36:33.501Z,3.60
2019-05-29T22:39:01.844Z,3.07
2019-05-29T22:41:30.035Z,3.40
2019-05-29T22:43:58.143Z,3.20
2019-05-29T22:46:26.250Z,3.47
2019-05-29T22:48:55.763Z,3.30
2019-05-29T22:51:24.157Z,3.63
2019-05-29T22:53:52.756Z,3.10
2019-05-29T22:56:22.654Z,3.00
2019-05-29T22:58:51.977Z,2.80
2019-05-29T23:01:20.243Z,3.80
2019-05-29T23:03:48.406Z,12.70
2019-05-29T23:06:16.644Z,4.03
2019-05-29T23:08:44.807Z,3.93
2019-05-29T23:11:12.974Z,3.73
2019-05-29T23:13:41.162Z,4.00
2019-05-29T23:16:09.280Z,3.33
2019-05-29T23:18:37.408Z,4.13
2019-05-29T23:21:05.535Z,3.50
2019-05-29T23:23:33.745Z,3.70
2019-05-29T23:26:02.966Z,3.75
2019-05-29T23:28:31.264Z,4.50
2019-05-29T23:30:59.375Z,3.80
2019-05-29T23:33:27.500Z,3.70
2019-05-29T23:35:55.612Z,3.60
2019-05-29T23:38:26.292Z,3.60
2019-05-29T23:40:55.244Z,3.90
2019-05-29T23:43:23.688Z,3.83
2019-05-29T23:45:51.834Z,4.17
2019-05-29T23:48:19.995Z,4.40
2019-05-29T23:50:48.167Z,4.20
2019-05-29T23:53:17.129Z,4.40
2019-05-29T23:55:45.327Z,3.77
2019-05-29T23:58:13.469Z,4.63
